Time;durP1;ratioP1;P1;durP2;ratioP2;P2;SDS_P1;SDS_P2;PMS_P1;PMS_P2;Temp;Humidity;BMP_temperature;BMP_pressure;BME280_temperature;BME280_humidity;BME280_pressure;Samples;Min_cycle;Max_cycle;Signal;HPM_P1;HPM_P2
2022/04/06 00:00:20;;;;;;;10.53;9.13;;;10.40;99.90;;;;;;5040315;28;20225;-77
2022/04/06 00:02:46;;;;;;;10.70;9.60;;;10.40;99.90;;;;;;5043691;28;20748;-78
2022/04/06 00:05:12;;;;;;;11.43;8.60;;;10.40;99.90;;;;;;5041085;28;20189;-77
2022/04/06 00:07:43;;;;;;;10.53;9.20;;;10.40;99.90;;;;;;5048960;28;20178;-77
2022/04/06 00:10:10;;;;;;;9.90;8.90;;;10.40;99.90;;;;;;5048289;28;20181;-78
2022/04/06 00:12:38;;;;;;;11.57;9.37;;;10.40;99.90;;;;;;5039572;28;20186;-77
2022/04/06 00:15:06;;;;;;;10.87;9.40;;;10.40;99.90;;;;;;5051601;28;20202;-78
2022/04/06 00:17:32;;;;;;;9.40;8.50;;;10.40;99.90;;;;;;5051622;28;20231;-77
2022/04/06 00:19:58;;;;;;;10.30;8.60;;;10.40;99.90;;;;;;5039531;28;20841;-77
2022/04/06 00:22:24;;;;;;;10.07;8.77;;;10.40;99.90;;;;;;5047133;28;20170;-77
2022/04/06 00:24:51;;;;;;;10.10;9.10;;;10.40;99.90;;;;;;5042193;28;20199;-77
2022/04/06 00:27:18;;;;;;;10.67;8.77;;;10.40;99.90;;;;;;5030906;28;20209;-77
2022/04/06 00:29:44;;;;;;;11.47;8.70;;;10.40;99.90;;;;;;5052127;28;20186;-78
2022/04/06 00:32:10;;;;;;;9.07;8.17;;;10.40;99.90;;;;;;5048574;28;23142;-78
2022/04/06 00:37:20;;;;;;;10.23;9.10;;;10.40;99.90;;;;;;5048347;28;20603;-77
2022/04/06 00:39:46;;;;;;;9.67;8.60;;;10.40;99.90;;;;;;5051599;28;20233;-77
2022/04/06 00:42:12;;;;;;;10.70;9.47;;;10.40;99.90;;;;;;5049906;28;20178;-77
2022/04/06 00:44:39;;;;;;;11.20;9.30;;;10.40;99.90;;;;;;5041203;28;20259;-77
2022/04/06 00:47:06;;;;;;;11.23;9.83;;;10.40;99.90;;;;;;5051547;28;20185;-77
2022/04/06 00:49:33;;;;;;;10.93;9.70;;;10.40;99.90;;;;;;5054886;28;20177;-77
2022/04/06 00:52:01;;;;;;;12.43;10.13;;;10.40;99.90;;;;;;5056185;28;20194;-77
2022/04/06 00:54:29;;;;;;;11.60;10.03;;;10.40;99.90;;;;;;5048156;28;20194;-77
2022/04/06 00:56:56;;;;;;;12.60;10.27;;;10.40;99.90;;;;;;5057544;28;20177;-77
2022/04/06 00:59:22;;;;;;;12.60;10.30;;;10.40;99.90;;;;;;5050498;28;20174;-77
2022/04/06 01:01:50;;;;;;;11.87;9.77;;;10.40;99.90;;;;;;5052738;28;20186;-77
2022/04/06 01:04:17;;;;;;;12.47;10.37;;;10.40;99.90;;;;;;5052537;28;20201;-77
2022/04/06 01:06:48;;;;;;;13.50;10.80;;;10.40;99.90;;;;;;5053866;28;20177;-77
2022/04/06 01:09:19;;;;;;;12.97;11.00;;;10.40;99.90;;;;;;5049991;28;20898;-78
2022/04/06 01:11:47;;;;;;;12.47;10.13;;;10.40;99.90;;;;;;5058461;28;20227;-77
2022/04/06 01:14:14;;;;;;;11.67;10.47;;;10.40;99.90;;;;;;5048754;28;20202;-77
2022/04/06 01:16:40;;;;;;;13.03;10.60;;;10.40;99.90;;;;;;5043255;28;20237;-77
2022/04/06 01:19:06;;;;;;;12.77;10.80;;;10.40;99.90;;;;;;5048322;28;20672;-77
2022/04/06 01:21:32;;;;;;;10.70;9.60;;;10.40;99.90;;;;;;5052141;28;20205;-77
2022/04/06 01:23:58;;;;;;;12.50;10.67;;;10.40;99.90;;;;;;5039191;28;20205;-78
2022/04/06 01:26:24;;;;;;;12.43;11.07;;;10.50;99.90;;;;;;5048502;28;20181;-77
2022/04/06 01:28:51;;;;;;;14.50;11.73;;;10.40;99.90;;;;;;5050370;28;20178;-77
2022/04/06 01:31:17;;;;;;;12.73;10.70;;;10.50;99.90;;;;;;5048191;28;20186;-77
2022/04/06 01:33:43;;;;;;;13.40;11.50;;;10.50;99.90;;;;;;5047862;28;20189;-77
2022/04/06 01:36:10;;;;;;;11.27;9.80;;;10.50;99.90;;;;;;5052943;28;20552;-77
2022/04/06 01:38:35;;;;;;;12.47;11.13;;;10.50;99.90;;;;;;5041466;28;20266;-78
2022/04/06 01:41:01;;;;;;;13.43;11.33;;;10.50;99.90;;;;;;5045171;28;20293;-77
2022/04/06 01:43:27;;;;;;;14.57;10.83;;;10.50;99.90;;;;;;5043179;28;20192;-77
2022/04/06 01:45:54;;;;;;;12.40;11.20;;;10.50;99.90;;;;;;5049900;28;20588;-77
2022/04/06 01:48:20;;;;;;;11.60;10.27;;;10.50;99.90;;;;;;5045951;28;20182;-77
2022/04/06 01:53:30;;;;;;;12.37;11.07;;;10.50;99.90;;;;;;5043624;28;20206;-77
2022/04/06 01:55:57;;;;;;;11.90;10.57;;;10.50;99.90;;;;;;5044486;28;20297;-77
2022/04/06 01:58:23;;;;;;;12.43;11.13;;;10.50;99.90;;;;;;5043961;28;20182;-77
2022/04/06 02:00:51;;;;;;;12.07;10.77;;;10.50;99.90;;;;;;5042309;28;20784;-77
2022/04/06 02:03:17;;;;;;;12.20;10.40;;;10.50;99.90;;;;;;5049750;28;20283;-78
2022/04/06 02:05:42;;;;;;;11.30;10.10;;;10.50;99.90;;;;;;5066322;28;20696;-77
2022/04/06 02:08:10;;;;;;;12.00;10.40;;;10.50;99.90;;;;;;5038560;28;20665;-78
2022/04/06 02:10:38;;;;;;;12.57;10.90;;;10.50;99.90;;;;;;5047185;28;20189;-78
2022/04/06 02:13:04;;;;;;;12.57;10.43;;;10.50;99.90;;;;;;5049614;28;20186;-77
2022/04/06 02:15:30;;;;;;;12.63;10.53;;;10.50;99.90;;;;;;5042889;28;20205;-77
2022/04/06 02:17:56;;;;;;;13.97;11.03;;;10.50;99.90;;;;;;5038596;28;20208;-77
2022/04/06 02:20:22;;;;;;;12.27;10.60;;;10.50;99.90;;;;;;5046832;28;20287;-77
2022/04/06 02:22:49;;;;;;;10.80;9.70;;;10.50;99.90;;;;;;5043458;28;20316;-77
2022/04/06 02:25:15;;;;;;;13.33;10.93;;;10.60;99.90;;;;;;5051772;28;20194;-77
2022/04/06 02:27:45;;;;;;;11.17;9.63;;;10.60;99.90;;;;;;5050388;28;20193;-78
2022/04/06 02:30:11;;;;;;;10.20;9.10;;;10.60;99.90;;;;;;5047349;28;20178;-77
2022/04/06 02:32:37;;;;;;;10.97;9.23;;;10.60;99.90;;;;;;5042908;28;20674;-77
2022/04/06 02:35:03;;;;;;;10.90;9.60;;;10.60;99.90;;;;;;5042891;28;20205;-77
2022/04/06 02:37:29;;;;;;;11.67;10.03;;;10.60;99.90;;;;;;5045760;28;20206;-77
2022/04/06 02:39:54;;;;;;;11.13;9.63;;;10.60;99.90;;;;;;5048058;28;20275;-77
2022/04/06 02:42:20;;;;;;;10.57;9.40;;;10.70;99.90;;;;;;5052111;28;20225;-77
2022/04/06 02:44:46;;;;;;;11.07;9.30;;;10.70;99.90;;;;;;5042756;28;20260;-77
2022/04/06 02:47:12;;;;;;;10.80;9.57;;;10.60;99.90;;;;;;5043104;28;20268;-77
2022/04/06 02:49:37;;;;;;;10.60;9.23;;;10.70;99.90;;;;;;5047321;28;22208;-75
2022/04/06 02:52:04;;;;;;;10.20;9.20;;;10.70;99.90;;;;;;5048454;28;20252;-75
2022/04/06 02:54:30;;;;;;;11.20;9.40;;;10.70;99.90;;;;;;5042729;28;20199;-77
2022/04/06 02:56:55;;;;;;;9.93;8.93;;;10.70;99.90;;;;;;5043555;28;20753;-77
2022/04/06 02:59:21;;;;;;;12.63;9.83;;;10.60;99.90;;;;;;5046639;28;20181;-77
2022/04/06 03:01:47;;;;;;;10.77;9.67;;;10.60;99.90;;;;;;5049195;28;20205;-77
2022/04/06 03:04:13;;;;;;;10.37;9.27;;;10.60;99.90;;;;;;5040037;28;20221;-77
2022/04/06 03:06:39;;;;;;;9.60;8.60;;;10.60;99.90;;;;;;5044703;28;20743;-78
2022/04/06 03:09:06;;;;;;;10.30;9.20;;;10.60;99.90;;;;;;5047455;28;20213;-78
2022/04/06 03:11:31;;;;;;;12.13;9.27;;;10.60;99.90;;;;;;5051078;28;20518;-78
2022/04/06 03:13:58;;;;;;;11.87;9.50;;;10.60;99.90;;;;;;5042947;28;20256;-78
2022/04/06 03:16:25;;;;;;;10.70;9.43;;;10.60;99.90;;;;;;5036272;28;20199;-78
2022/04/06 03:18:52;;;;;;;11.17;9.97;;;10.60;99.90;;;;;;5053018;28;20202;-77
2022/04/06 03:21:19;;;;;;;11.13;9.70;;;10.60;99.90;;;;;;5047441;28;20198;-77
2022/04/06 03:23:44;;;;;;;11.27;9.70;;;10.60;99.90;;;;;;5038972;28;20589;-77
2022/04/06 03:26:11;;;;;;;11.83;9.90;;;10.60;99.90;;;;;;5053092;28;20236;-77
2022/04/06 03:28:38;;;;;;;10.67;9.20;;;10.60;99.90;;;;;;5050793;28;20181;-77
2022/04/06 03:31:05;;;;;;;12.07;9.60;;;10.60;99.90;;;;;;5046846;28;20554;-77
2022/04/06 03:33:31;;;;;;;10.83;9.40;;;10.60;99.90;;;;;;5044402;28;20197;-77
2022/04/06 03:35:57;;;;;;;10.27;9.17;;;10.60;99.90;;;;;;5046735;28;20202;-78
2022/04/06 03:38:23;;;;;;;10.20;8.70;;;10.60;99.90;;;;;;5043968;28;20723;-77
2022/04/06 03:40:49;;;;;;;9.33;8.33;;;10.60;99.90;;;;;;5046972;28;20198;-76
2022/04/06 03:43:15;;;;;;;10.80;9.60;;;10.60;99.90;;;;;;5043647;28;20183;-77
2022/04/06 03:45:41;;;;;;;9.93;8.93;;;10.60;99.90;;;;;;5037898;28;20194;-77
2022/04/06 03:48:07;;;;;;;12.07;9.87;;;10.60;99.90;;;;;;5058374;28;20628;-76
2022/04/06 03:50:33;;;;;;;9.60;8.33;;;10.60;99.90;;;;;;5049897;28;20192;-76
2022/04/06 03:52:58;;;;;;;10.47;8.90;;;10.60;99.90;;;;;;5050702;28;20676;-76
2022/04/06 03:55:24;;;;;;;10.10;9.00;;;10.60;99.90;;;;;;5054594;28;20276;-76
2022/04/06 03:57:50;;;;;;;11.70;10.03;;;10.60;99.90;;;;;;5045832;28;20194;-76
2022/04/06 04:00:17;;;;;;;10.87;9.00;;;10.60;99.90;;;;;;5055001;28;20238;-76
2022/04/06 04:02:44;;;;;;;10.63;9.10;;;10.60;99.90;;;;;;5057411;28;20276;-76
2022/04/06 04:05:09;;;;;;;10.47;8.73;;;10.60;99.90;;;;;;5046332;28;20635;-77
2022/04/06 04:07:38;;;;;;;11.17;8.70;;;10.60;99.90;;;;;;5044401;28;20182;-76
2022/04/06 04:10:06;;;;;;;11.33;8.87;;;10.60;99.90;;;;;;5046323;28;20220;-77
2022/04/06 04:12:34;;;;;;;10.70;8.60;;;10.60;99.90;;;;;;5050066;28;20182;-76
2022/04/06 04:14:59;;;;;;;12.00;9.50;;;10.70;99.90;;;;;;5058763;28;20212;-77
2022/04/06 04:17:25;;;;;;;11.33;8.93;;;10.60;99.90;;;;;;5049789;28;20204;-77
2022/04/06 04:19:51;;;;;;;9.60;8.53;;;10.60;99.90;;;;;;5055622;28;20791;-76
2022/04/06 04:22:16;;;;;;;11.43;8.93;;;10.60;99.90;;;;;;5049278;28;20703;-77
2022/04/06 04:24:42;;;;;;;10.83;9.07;;;10.60;99.90;;;;;;5050605;28;20252;-77
2022/04/06 04:27:08;;;;;;;10.20;8.70;;;10.60;99.90;;;;;;5045404;28;20852;-77
2022/04/06 04:29:34;;;;;;;9.93;8.70;;;10.60;99.90;;;;;;5051538;28;20182;-77
2022/04/06 04:32:00;;;;;;;10.47;9.20;;;10.60;99.90;;;;;;5045175;28;20196;-76
2022/04/06 04:34:26;;;;;;;9.87;8.73;;;10.60;99.90;;;;;;5054489;28;20193;-76
2022/04/06 04:36:55;;;;;;;9.90;8.67;;;10.60;99.90;;;;;;5050888;28;20286;-77
2022/04/06 04:39:46;;;;;;;9.27;8.23;;;10.60;99.90;;;;;;5051122;28;20205;-77
2022/04/06 04:42:37;;;;;;;9.90;8.43;;;10.60;99.90;;;;;;5046946;28;20185;-76
2022/04/06 04:45:04;;;;;;;9.73;8.13;;;10.60;99.90;;;;;;5045818;28;20317;-76
2022/04/06 04:47:30;;;;;;;10.07;8.70;;;10.60;99.90;;;;;;5050110;28;20213;-76
2022/04/06 04:49:57;;;;;;;8.87;7.90;;;10.60;99.90;;;;;;5040237;28;20191;-76
2022/04/06 04:52:23;;;;;;;9.33;8.33;;;10.60;99.90;;;;;;5055322;28;20177;-76
2022/04/06 04:54:49;;;;;;;11.60;9.13;;;10.60;99.90;;;;;;5055455;28;20684;-76
2022/04/06 04:57:14;;;;;;;9.10;7.90;;;10.60;99.90;;;;;;5051756;28;20182;-76
2022/04/06 04:59:40;;;;;;;11.80;8.50;;;10.60;99.90;;;;;;5042769;28;20541;-76
2022/04/06 05:02:06;;;;;;;9.87;8.60;;;10.60;99.90;;;;;;5052676;28;20728;-76
2022/04/06 05:04:32;;;;;;;9.77;7.93;;;10.50;99.90;;;;;;5049259;28;20229;-76
2022/04/06 05:06:58;;;;;;;10.83;8.43;;;10.50;99.90;;;;;;5048419;28;20264;-77
2022/04/06 05:09:23;;;;;;;10.60;8.40;;;10.60;99.90;;;;;;5052901;28;20546;-76
2022/04/06 05:11:49;;;;;;;9.70;8.27;;;10.60;99.90;;;;;;5053003;28;20336;-77
2022/04/06 05:14:15;;;;;;;9.90;8.30;;;10.60;99.90;;;;;;5052922;28;20205;-76
2022/04/06 05:16:40;;;;;;;10.53;8.90;;;10.60;99.90;;;;;;5054161;28;21021;-76
2022/04/06 05:19:06;;;;;;;10.33;8.10;;;10.60;99.90;;;;;;5050975;28;20262;-78
2022/04/06 05:21:32;;;;;;;9.30;7.73;;;10.60;99.90;;;;;;5052248;28;20217;-79
2022/04/06 05:23:59;;;;;;;10.33;8.47;;;10.60;99.90;;;;;;5040836;28;20202;-79
2022/04/06 05:26:25;;;;;;;10.30;8.23;;;10.60;99.90;;;;;;5057405;28;20662;-80
2022/04/06 05:28:51;;;;;;;10.50;8.20;;;10.70;99.90;;;;;;5041496;28;20185;-80
2022/04/06 05:31:17;;;;;;;9.43;7.90;;;10.70;99.90;;;;;;5051941;28;21090;-78
2022/04/06 05:33:44;;;;;;;11.00;8.63;;;10.70;99.90;;;;;;5041439;28;20182;-80
2022/04/06 05:36:10;;;;;;;10.17;8.43;;;10.80;99.90;;;;;;5049980;28;20239;-81
2022/04/06 05:38:36;;;;;;;10.87;8.93;;;10.80;99.90;;;;;;5045205;28;20201;-77
2022/04/06 05:41:02;;;;;;;9.00;8.10;;;10.80;99.90;;;;;;5049505;28;20202;-78
2022/04/06 05:43:28;;;;;;;10.23;8.60;;;10.70;99.90;;;;;;5060174;28;20237;-79
2022/04/06 05:45:55;;;;;;;12.63;9.53;;;10.80;99.90;;;;;;5056923;28;20247;-76
2022/04/06 05:48:20;;;;;;;10.80;8.57;;;10.70;99.90;;;;;;5050915;28;20174;-78
2022/04/06 05:50:46;;;;;;;10.47;8.77;;;10.70;99.90;;;;;;5050422;28;20185;-77
2022/04/06 05:53:12;;;;;;;12.03;9.27;;;10.80;99.90;;;;;;5060926;28;20178;-75
2022/04/06 05:55:38;;;;;;;10.37;8.53;;;10.80;99.90;;;;;;5049265;28;20374;-76
2022/04/06 05:58:03;;;;;;;10.80;9.00;;;10.80;99.90;;;;;;5062723;28;20187;-75
2022/04/06 06:00:29;;;;;;;10.50;9.03;;;10.70;99.90;;;;;;5040798;28;20236;-75
2022/04/06 06:02:55;;;;;;;11.20;9.47;;;10.80;99.90;;;;;;5057262;28;20184;-75
2022/04/06 06:05:21;;;;;;;10.80;8.80;;;10.80;99.90;;;;;;5071551;28;20280;-76
2022/04/06 06:07:47;;;;;;;10.47;8.93;;;10.80;99.90;;;;;;5042297;28;20214;-76
2022/04/06 06:10:12;;;;;;;10.10;8.90;;;10.80;99.90;;;;;;5052941;28;20269;-76
2022/04/06 06:12:38;;;;;;;10.77;9.07;;;10.90;99.90;;;;;;5046475;28;20223;-76
2022/04/06 06:15:06;;;;;;;11.13;9.40;;;10.90;99.90;;;;;;5052318;28;20289;-76
2022/04/06 06:17:39;;;;;;;10.63;8.80;;;11.00;99.90;;;;;;5039244;28;20182;-75
2022/04/06 06:20:05;;;;;;;10.47;8.57;;;11.00;99.90;;;;;;5043712;28;20965;-75
2022/04/06 06:22:31;;;;;;;10.80;8.77;;;11.00;99.90;;;;;;5050683;28;20189;-75
2022/04/06 06:24:57;;;;;;;9.50;8.30;;;11.10;99.90;;;;;;5050929;28;20205;-75
2022/04/06 06:27:24;;;;;;;10.77;8.73;;;11.10;99.90;;;;;;5050569;28;20181;-75
2022/04/06 06:29:50;;;;;;;11.07;9.40;;;11.10;99.90;;;;;;5052000;28;20182;-76
2022/04/06 06:32:16;;;;;;;12.27;9.30;;;11.20;99.90;;;;;;5050943;28;20178;-76
2022/04/06 06:34:42;;;;;;;9.67;8.43;;;11.20;99.90;;;;;;5050880;28;20190;-76
2022/04/06 06:37:09;;;;;;;11.53;8.63;;;11.20;99.90;;;;;;5050758;28;20189;-76
2022/04/06 06:39:34;;;;;;;11.47;8.67;;;11.20;99.90;;;;;;5050970;28;20540;-76
2022/04/06 06:42:01;;;;;;;9.27;7.87;;;11.20;99.90;;;;;;5042742;28;20214;-76
2022/04/06 06:44:27;;;;;;;10.20;8.17;;;11.20;99.90;;;;;;5036516;28;20193;-76
2022/04/06 06:46:52;;;;;;;11.80;8.50;;;11.30;99.90;;;;;;5048133;28;20177;-76
2022/04/06 06:49:18;;;;;;;10.43;9.00;;;11.30;99.90;;;;;;5056865;28;20220;-76
2022/04/06 06:51:44;;;;;;;10.40;8.37;;;11.40;99.90;;;;;;5052923;28;20675;-76
2022/04/06 06:54:10;;;;;;;10.17;8.13;;;11.40;99.90;;;;;;5072259;28;20274;-79
2022/04/06 06:56:35;;;;;;;9.13;8.03;;;11.40;99.90;;;;;;5065111;28;20261;-79
2022/04/06 06:59:01;;;;;;;10.03;8.50;;;11.50;99.90;;;;;;5052840;28;20612;-78
2022/04/06 07:01:27;;;;;;;10.30;8.70;;;11.50;99.90;;;;;;5051958;28;20194;-78
2022/04/06 07:03:52;;;;;;;9.57;8.50;;;11.50;99.90;;;;;;5051779;28;20181;-78
2022/04/06 07:06:18;;;;;;;11.80;8.53;;;11.60;99.90;;;;;;5048889;28;20582;-78
2022/04/06 07:08:44;;;;;;;10.27;8.27;;;11.70;99.90;;;;;;5033104;28;20182;-78
2022/04/06 07:11:10;;;;;;;10.10;8.70;;;11.70;99.90;;;;;;5046435;28;20265;-78
2022/04/06 07:13:35;;;;;;;9.70;8.57;;;11.70;99.90;;;;;;5050377;28;20181;-78
2022/04/06 07:16:03;;;;;;;9.97;8.57;;;11.80;99.90;;;;;;5049113;28;20200;-78
2022/04/06 07:18:29;;;;;;;11.37;8.63;;;11.90;99.90;;;;;;5031914;28;20319;-79
2022/04/06 07:20:55;;;;;;;9.57;8.57;;;12.00;99.90;;;;;;5031252;28;20226;-78
2022/04/06 07:23:20;;;;;;;10.90;8.67;;;12.00;99.90;;;;;;5035383;28;20184;-79
2022/04/06 07:25:46;;;;;;;8.80;7.90;;;12.10;99.90;;;;;;5044351;28;20202;-78
2022/04/06 07:28:12;;;;;;;9.70;7.77;;;12.20;99.90;;;;;;5031862;28;20242;-78
2022/04/06 07:30:38;;;;;;;10.73;8.47;;;12.20;99.90;;;;;;5031913;28;20175;-78
2022/04/06 07:33:04;;;;;;;9.30;8.13;;;12.20;99.90;;;;;;5036888;28;20191;-78
2022/04/06 07:35:31;;;;;;;8.67;7.53;;;12.20;99.90;;;;;;5040650;28;20244;-78
2022/04/06 07:37:57;;;;;;;8.40;7.50;;;12.10;99.90;;;;;;5056765;28;20684;-78
2022/04/06 07:40:24;;;;;;;8.13;7.27;;;12.10;99.90;;;;;;5035756;28;20238;-78
2022/04/06 07:42:51;;;;;;;9.77;7.50;;;12.10;99.90;;;;;;5032509;28;21121;-78
2022/04/06 07:45:18;;;;;;;8.93;6.90;;;12.00;99.90;;;;;;5041435;28;20284;-78
2022/04/06 07:47:46;;;;;;;7.77;6.57;;;12.10;99.90;;;;;;5052853;28;20174;-78
2022/04/06 07:50:13;;;;;;;7.63;6.77;;;12.10;99.90;;;;;;5054069;28;20235;-78
2022/04/06 07:52:40;;;;;;;8.10;6.43;;;12.20;99.90;;;;;;5024593;28;20182;-79
2022/04/06 07:55:07;;;;;;;7.23;6.50;;;12.10;99.90;;;;;;5040695;28;20575;-78
2022/04/06 07:57:34;;;;;;;9.27;7.03;;;12.20;99.90;;;;;;5041768;28;20264;-78
2022/04/06 08:00:06;;;;;;;7.53;6.77;;;12.10;99.90;;;;;;5047079;28;20218;-78
2022/04/06 08:02:32;;;;;;;7.90;6.70;;;12.20;99.90;;;;;;5052094;28;20260;-78
2022/04/06 08:04:58;;;;;;;9.27;6.90;;;12.20;99.90;;;;;;5052484;28;20198;-78
2022/04/06 08:07:24;;;;;;;10.33;6.70;;;12.20;99.90;;;;;;5053037;28;20717;-78
2022/04/06 08:09:50;;;;;;;7.97;6.50;;;12.30;99.90;;;;;;5053780;28;20174;-78
2022/04/06 08:12:15;;;;;;;8.60;7.13;;;12.30;99.90;;;;;;5051886;28;20177;-78
2022/04/06 08:14:41;;;;;;;8.13;6.43;;;12.40;99.90;;;;;;5053417;28;20190;-78
2022/04/06 08:17:07;;;;;;;7.97;6.40;;;12.50;99.90;;;;;;5048047;28;20182;-78
2022/04/06 08:19:33;;;;;;;8.17;6.37;;;12.60;99.90;;;;;;5056804;28;20193;-78
2022/04/06 08:21:59;;;;;;;7.03;5.90;;;12.60;99.90;;;;;;5056467;28;20210;-79
2022/04/06 08:24:25;;;;;;;8.10;6.43;;;12.70;99.90;;;;;;5053848;28;20194;-78
2022/04/06 08:26:51;;;;;;;6.67;5.87;;;12.70;99.90;;;;;;5035437;28;20244;-78
2022/04/06 08:29:16;;;;;;;8.67;5.80;;;12.70;99.90;;;;;;5042763;28;20265;-78
2022/04/06 08:31:42;;;;;;;10.10;5.10;;;12.80;99.90;;;;;;5033052;28;20190;-78
2022/04/06 08:34:08;;;;;;;9.53;4.73;;;12.80;99.90;;;;;;5034560;28;20206;-78
2022/04/06 08:36:34;;;;;;;5.57;4.73;;;12.90;99.90;;;;;;5039899;28;20186;-78
2022/04/06 08:39:01;;;;;;;7.20;4.87;;;12.90;99.90;;;;;;5051209;28;20206;-79
2022/04/06 08:41:28;;;;;;;8.93;5.57;;;12.90;99.90;;;;;;5049551;28;20766;-78
2022/04/06 08:43:55;;;;;;;7.00;5.00;;;13.00;99.60;;;;;;5035619;28;20193;-78
2022/04/06 08:46:21;;;;;;;9.27;4.90;;;13.10;97.10;;;;;;5054117;28;20220;-78
2022/04/06 08:48:48;;;;;;;8.83;4.77;;;13.20;96.80;;;;;;5044810;28;20182;-78
2022/04/06 08:51:16;;;;;;;6.10;4.57;;;13.30;98.00;;;;;;5035587;28;20179;-78
2022/04/06 08:53:43;;;;;;;7.57;4.57;;;13.30;99.90;;;;;;5052147;28;20179;-78
2022/04/06 08:56:12;;;;;;;6.70;4.17;;;13.40;94.60;;;;;;5040398;28;20162;-79
2022/04/06 08:58:38;;;;;;;7.27;4.50;;;13.40;87.80;;;;;;5057642;28;20174;-78
2022/04/06 09:01:04;;;;;;;7.27;4.47;;;13.50;83.30;;;;;;5033140;28;20202;-78
2022/04/06 09:03:30;;;;;;;6.70;4.13;;;13.40;82.00;;;;;;5049450;28;20558;-78
2022/04/06 09:06:05;;;;;;;6.50;4.60;;;13.40;83.90;;;;;;5037121;28;20292;-78
2022/04/06 09:08:39;;;;;;;6.60;4.30;;;13.40;79.70;;;;;;5056264;28;20888;-79
2022/04/06 09:11:07;;;;;;;6.60;4.23;;;13.30;76.90;;;;;;5056021;28;20169;-78
2022/04/06 09:13:33;;;;;;;6.40;4.53;;;13.30;78.80;;;;;;5053957;28;20192;-79
2022/04/06 09:16:00;;;;;;;6.97;4.30;;;13.30;83.50;;;;;;5055743;28;20266;-79
2022/04/06 09:18:41;;;;;;;7.00;5.10;;;13.30;88.10;;;;;;5053145;28;20193;-78
2022/04/06 09:21:12;;;;;;;8.13;5.20;;;13.30;94.70;;;;;;5054128;28;20224;-79
2022/04/06 09:23:38;;;;;;;5.97;4.90;;;13.40;98.40;;;;;;5037979;28;20183;-79
2022/04/06 09:26:10;;;;;;;7.60;4.70;;;13.50;99.90;;;;;;5035192;28;20185;-78
2022/04/06 09:28:40;;;;;;;6.80;5.20;;;13.60;99.90;;;;;;5033960;28;20233;-78
2022/04/06 09:31:06;;;;;;;6.73;5.00;;;13.80;99.90;;;;;;5052281;28;20244;-80
2022/04/06 09:33:32;;;;;;;6.97;5.30;;;13.90;99.80;;;;;;5053945;28;20633;-78
2022/04/06 09:35:58;;;;;;;6.13;4.97;;;14.00;97.60;;;;;;5047230;28;20209;-78
2022/04/06 09:38:27;;;;;;;5.87;4.97;;;14.10;95.90;;;;;;5045586;28;20541;-78
2022/04/06 09:41:02;;;;;;;6.37;4.70;;;14.20;94.80;;;;;;5054408;28;20202;-77
2022/04/06 09:43:30;;;;;;;5.80;5.03;;;14.20;91.70;;;;;;5051400;28;20166;-78
2022/04/06 09:49:00;;;;;;;6.23;4.83;;;14.50;81.70;;;;;;5050260;28;20182;-78
2022/04/06 09:51:27;;;;;;;8.27;5.00;;;14.70;80.40;;;;;;5054177;28;20257;-78
2022/04/06 09:53:53;;;;;;;8.30;4.20;;;14.80;83.60;;;;;;5052962;28;20712;-78
2022/04/06 09:56:21;;;;;;;8.27;4.30;;;14.90;81.40;;;;;;5052258;28;20182;-78
2022/04/06 09:58:47;;;;;;;7.03;4.30;;;15.00;76.10;;;;;;5039772;28;20236;-78
2022/04/06 10:01:16;;;;;;;6.40;3.97;;;15.00;77.10;;;;;;5054323;28;20728;-78
2022/04/06 10:03:50;;;;;;;5.60;3.30;;;15.00;72.80;;;;;;5043180;28;20182;-78
2022/04/06 10:06:16;;;;;;;4.57;3.27;;;15.10;71.10;;;;;;5047216;28;20204;-78
2022/04/06 10:08:43;;;;;;;4.17;3.13;;;15.20;68.90;;;;;;5053064;28;20171;-78
2022/04/06 10:11:11;;;;;;;5.53;3.10;;;15.40;64.50;;;;;;5053136;28;20203;-78
2022/04/06 10:13:38;;;;;;;7.57;3.27;;;15.70;63.60;;;;;;5051947;28;20185;-78
2022/04/06 10:16:10;;;;;;;6.30;3.10;;;15.80;60.30;;;;;;5053000;28;20223;-78
2022/04/06 10:18:36;;;;;;;6.00;2.50;;;15.70;60.50;;;;;;5045799;28;20213;-78
2022/04/06 10:21:10;;;;;;;7.40;2.90;;;15.70;61.30;;;;;;5052397;28;20209;-78
2022/04/06 10:23:56;;;;;;;5.03;2.63;;;15.70;60.40;;;;;;5046193;28;20183;-78
2022/04/06 10:26:34;;;;;;;4.93;2.80;;;15.70;59.90;;;;;;5036645;28;20179;-78
2022/04/06 10:29:00;;;;;;;5.30;2.60;;;15.60;59.10;;;;;;5052019;28;20595;-77
2022/04/06 10:31:29;;;;;;;5.33;2.90;;;15.40;59.40;;;;;;5051067;28;20178;-77
2022/04/06 10:34:19;;;;;;;4.23;2.80;;;15.50;60.30;;;;;;5039608;28;20818;-77
2022/04/06 10:37:02;;;;;;;4.97;3.10;;;15.50;61.20;;;;;;5050039;28;20193;-78
2022/04/06 10:39:28;;;;;;;6.00;3.20;;;15.60;62.60;;;;;;5030343;28;20546;-79
2022/04/06 10:42:19;;;;;;;6.00;3.77;;;15.60;62.60;;;;;;5054025;28;20206;-78
2022/04/06 10:44:45;;;;;;;8.73;3.93;;;15.60;62.30;;;;;;5048624;28;20303;-78
2022/04/06 10:47:12;;;;;;;5.03;3.30;;;15.60;63.20;;;;;;5058545;28;20185;-79
2022/04/06 10:49:39;;;;;;;4.47;3.37;;;15.60;63.70;;;;;;5047863;28;20236;-79
2022/04/06 10:52:26;;;;;;;5.80;3.60;;;15.50;63.90;;;;;;5049420;28;20213;-81
2022/04/06 10:54:52;;;;;;;8.27;3.20;;;15.40;64.00;;;;;;5046812;28;20205;-81
2022/04/06 10:57:19;;;;;;;5.63;3.27;;;15.40;62.70;;;;;;5050130;28;20198;-82
2022/04/06 11:00:12;;;;;;;6.27;3.47;;;15.60;61.80;;;;;;5050583;28;20189;-82
2022/04/06 11:02:47;;;;;;;6.07;3.70;;;15.70;60.80;;;;;;5042125;28;20184;-83
2022/04/06 11:05:40;;;;;;;8.37;4.00;;;15.60;58.30;;;;;;5050743;28;20562;-87
2022/04/06 11:10:50;;;;;;;5.90;2.83;;;15.40;58.80;;;;;;5045961;28;20263;-81
2022/04/06 11:13:25;;;;;;;8.30;3.47;;;15.60;58.90;;;;;;5042222;28;20185;-80
2022/04/06 11:15:52;;;;;;;4.37;3.27;;;15.80;58.00;;;;;;5048269;28;20225;-81
2022/04/06 11:18:43;;;;;;;3.40;2.90;;;15.80;58.20;;;;;;5050557;28;20235;-82
2022/04/06 11:21:09;;;;;;;4.13;2.63;;;15.70;58.50;;;;;;5034105;28;20716;-82
2022/04/06 11:23:35;;;;;;;6.70;3.63;;;15.70;57.90;;;;;;5034721;28;20378;-82
2022/04/06 11:26:00;;;;;;;5.77;3.40;;;15.60;57.30;;;;;;5027791;28;20304;-82
2022/04/06 11:28:28;;;;;;;5.03;3.50;;;15.50;58.00;;;;;;5015855;28;20186;-82
2022/04/06 11:30:54;;;;;;;9.43;3.60;;;15.30;57.50;;;;;;5048145;28;20272;-82
2022/04/06 11:33:19;;;;;;;5.40;3.30;;;15.30;58.00;;;;;;5040703;28;20277;-83
2022/04/06 11:35:45;;;;;;;6.57;3.23;;;15.40;58.40;;;;;;5053515;28;20305;-81
2022/04/06 11:38:12;;;;;;;4.57;3.07;;;15.70;58.70;;;;;;5060299;28;20203;-83
2022/04/06 11:40:39;;;;;;;4.20;3.10;;;15.90;57.90;;;;;;5060577;28;20209;-83
2022/04/06 11:43:05;;;;;;;5.13;3.20;;;16.20;58.50;;;;;;5046591;28;20182;-83
2022/04/06 11:45:33;;;;;;;6.10;3.33;;;16.30;57.60;;;;;;5038061;28;20213;-83
2022/04/06 11:48:12;;;;;;;4.83;3.00;;;16.20;57.70;;;;;;5032864;28;20174;-81
2022/04/06 11:50:39;;;;;;;4.63;3.00;;;16.00;57.80;;;;;;5052358;28;20533;-83
2022/04/06 11:53:08;;;;;;;6.03;3.13;;;16.00;58.10;;;;;;5054586;28;20197;-83
2022/04/06 11:56:01;;;;;;;5.10;3.57;;;16.30;58.20;;;;;;5026931;28;20213;-82
2022/04/06 11:58:32;;;;;;;4.40;3.23;;;16.40;58.00;;;;;;5051478;28;20193;-82
2022/04/06 12:01:09;;;;;;;6.60;3.20;;;16.30;58.00;;;;;;5047429;28;20244;-84
2022/04/06 12:03:39;;;;;;;8.00;3.00;;;16.10;58.20;;;;;;5052853;28;20189;-82
2022/04/06 12:06:10;;;;;;;6.50;3.23;;;16.20;58.80;;;;;;5049617;28;20190;-83
2022/04/06 12:08:36;;;;;;;8.67;3.50;;;;;;;;;;5042269;28;20182;-84
2022/04/06 12:11:03;;;;;;;6.30;3.57;;;17.00;56.70;;;;;;5041924;28;20665;-84
2022/04/06 12:13:35;;;;;;;6.20;3.50;;;16.80;56.30;;;;;;5033354;28;20197;-81
2022/04/06 12:16:02;;;;;;;4.53;3.47;;;16.50;56.30;;;;;;5048009;28;20264;-81
2022/04/06 12:18:29;;;;;;;6.70;3.60;;;16.20;56.40;;;;;;5035512;28;20232;-84
2022/04/06 12:20:55;;;;;;;11.43;3.37;;;16.10;57.20;;;;;;5035706;28;20213;-79
2022/04/06 12:23:23;;;;;;;5.70;3.30;;;15.90;57.40;;;;;;5050297;28;20186;-79
2022/04/06 12:25:49;;;;;;;8.70;3.50;;;15.80;57.50;;;;;;5049890;28;20206;-76
2022/04/06 12:28:22;;;;;;;5.70;3.27;;;15.80;57.60;;;;;;5037216;28;20189;-80
2022/04/06 12:30:53;;;;;;;6.87;3.20;;;15.80;57.10;;;;;;5053059;28;20185;-77
2022/04/06 12:33:31;;;;;;;6.97;3.50;;;15.90;56.50;;;;;;5058113;28;20186;-79
2022/04/06 12:36:05;;;;;;;7.47;3.80;;;16.10;55.90;;;;;;5058755;28;20217;-79
2022/04/06 12:38:31;;;;;;;5.77;3.60;;;16.90;54.80;;;;;;5048120;28;20253;-80
2022/04/06 12:41:11;;;;;;;5.20;2.80;;;;;;;;;;5056713;28;20233;-79
2022/04/06 12:43:44;;;;;;;3.43;2.30;;;17.30;51.80;;;;;;5034750;28;20196;-77
2022/04/06 12:46:11;;;;;;;5.10;2.80;;;17.30;52.90;;;;;;5049143;28;20645;-77
2022/04/06 12:48:37;;;;;;;3.93;2.50;;;16.80;53.40;;;;;;5051221;28;20209;-78
2022/04/06 12:51:22;;;;;;;5.47;2.70;;;16.50;54.50;;;;;;5048895;28;20220;-77
2022/04/06 12:53:52;;;;;;;4.67;2.33;;;16.90;54.00;;;;;;5044387;28;20194;-77